Prairie City, Iowa
Current Conditions -  °F | °C
As of 8:15 AM on Friday 19 Dec 2014 (Local Time) from KTNU Reporting Station
Haze Haze  
Wind Chill: -7°   Ceiling: 3800
Heat Index: -3°   Visibility: 5mi
Dew Point: -4°   Wind: 7mph
Humidity: 93%   Direction: 130°SE
Pressure: 30.27"   Gusts: NA
Location:  41.6°N, 93.24°W
Report Text: KTNU 191415Z AUTO 13006KT 5SM BR FEW007 SCT016 OVC038 M03/M04 A3027 RMK AO2
Loading
Personal Weather Stations






























Interactive Weather Map New forecast layout! Learn more

10-Day Weather Forecast

Advertisements
Track Severe Weather on mobile